Latest Weather Observations for Warra

IDT60801

Issued at 3:31 am EST Saturday 30 July 2016 (issued every 30 minutes, with the page automatically refreshed every 10 minutes)

About weather observations | Map of weather stations | Latest weather observations for TAS | Other Formats
Station Details ID: 097024 Name: WARRA Lat: -43.06 Lon: 146.70 Height: 495.0 m
Data from the previous 72 hours. | See also: Recent months at Warra
Date/Time
EST
Temp
°C
App
Temp
°C
Dew
Point
°C
Rel
Hum
%
Delta-T
°C
Wind Press
QNH
hPa
Press
MSL
hPa
Rain since
9am
mm
Dir  Spd
km/h
Gust
km/h
Spd
kts
Gust
kts
30/03:30am 1.2 -3.4 -0.7 87 0.7 NW 13 17 7 9 - - 13.4
30/03:00am 1.3 -2.5 -1.1 84 0.9 NW 9 20 5 11 - - 13.4
30/02:30am 1.9 -1.9 -0.8 82 1.0 NW 9 20 5 11 - - 13.4
30/02:00am 2.7 -1.8 -0.2 81 1.1 WNW 13 24 7 13 - - 13.4
30/01:30am 2.7 -0.9 0.3 84 0.9 WNW 9 17 5 9 - - 13.4
30/01:00am 2.7 -1.0 -0.2 81 1.1 W 9 20 5 11 - - 13.4
30/12:30am 2.6 -2.3 -0.3 81 1.1 W 15 24 8 13 - - 13.4
30/12:00am 2.8 -2.3 0.5 85 0.9 W 17 32 9 17 - - 13.4
 
Date/Time
EST
Temp
°C
App
Temp
°C
Dew
Point
°C
Rel
Hum
%
Delta-T
°C
Wind Press
QNH
hPa
Press
MSL
hPa
Rain since
9am
mm
Dir  Spd
km/h
Gust
km/h
Spd
kts
Gust
kts
29/11:30pm 2.8 -0.8 0.9 87 0.7 WSW 9 20 5 11 - - 13.4
29/11:00pm 3.1 -4.8 1.0 86 0.8 WSW 32 57 17 31 - - 13.4
29/10:31pm 2.8 -4.2 1.8 93 0.4 WSW 28 46 15 25 - - 13.4
29/10:30pm 2.8 -4.3 1.6 92 0.5 WSW 28 44 15 24 - - 13.4
29/10:00pm 2.9 -4.2 1.6 91 0.5 W 28 46 15 25 - - 13.4
29/09:57pm 2.8 -4.2 1.8 93 0.4 W 28 46 15 25 - - 13.4
29/09:30pm 2.7 -1.7 2.6 99 0.0 WSW 15 28 8 15 - - 13.4
29/09:00pm 2.8 -1.2 2.7 99 0.0 SW 13 28 7 15 - - 13.4
29/08:30pm 2.9 -0.3 2.8 99 0.0 SW 9 20 5 11 - - 13.2
29/08:00pm 3.1 -1.2 3.0 99 0.0 SW 15 35 8 19 - - 13.0
29/07:30pm 3.7 -2.5 2.4 91 0.5 W 24 48 13 26 - - 12.0
29/07:00pm 3.3 -2.4 3.0 98 0.1 WSW 22 50 12 27 - - 12.0
29/06:30pm 3.1 -2.6 3.0 99 0.0 WSW 22 39 12 21 - - 12.0
29/06:00pm 4.0 -1.2 2.4 89 0.7 WSW 19 35 10 19 - - 11.0
29/05:30pm 3.9 -2.1 3.2 95 0.3 W 24 46 13 25 - - 11.0
29/05:00pm 4.2 -1.7 4.1 99 0.0 W 24 43 13 23 - - 11.0
29/04:30pm 4.8 -0.9 4.8 100 0.0 W 24 48 13 26 - - 10.6
29/04:00pm 5.4 -0.6 5.4 100 0.0 WSW 26 44 14 24 - - 10.2
29/03:30pm 5.9 1.2 5.9 100 0.0 W 20 41 11 22 - - 7.6
29/03:02pm 6.1 -0.1 6.0 99 0.0 W 28 65 15 35 - - 6.8
29/03:00pm 6.1 0.2 6.0 99 0.0 W 26 50 14 27 - - 6.8
29/02:30pm 6.5 0.4 6.4 99 0.0 W 28 61 15 33 - - 5.4
29/02:28pm 6.6 0.5 6.5 99 0.0 W 28 52 15 28 - - 4.8
29/02:00pm 6.7 1.0 6.6 99 0.0 W 26 54 14 29 - - 3.8
29/01:41pm 7.1 1.0 6.4 95 0.3 W 28 54 15 29 - - 2.4
29/01:30pm 7.1 2.8 6.8 98 0.1 W 19 48 10 26 - - 2.4
29/01:00pm 7.0 2.5 6.1 94 0.4 WNW 19 41 10 22 - - 2.0
29/12:30pm 7.0 2.5 6.3 95 0.3 W 19 33 10 18 - - 1.8
29/12:00pm 7.6 2.2 6.5 93 0.5 WNW 24 46 13 25 - - 1.2
29/11:30am 7.8 2.3 5.8 87 0.9 WNW 24 43 13 23 - - 0.8
29/11:06am 8.8 2.2 4.4 74 2.0 WNW 28 56 15 30 - - 0.8
29/11:00am 9.5 3.8 5.1 74 2.0 WNW 24 41 13 22 - - 0.8
29/10:30am 8.0 -0.3 4.2 77 1.7 WNW 37 65 20 35 - - 0.8
29/10:00am 7.5 0.9 6.0 90 0.7 WNW 30 56 16 30 - - 0.8
29/09:41am 7.2 0.3 6.5 95 0.3 W 32 76 17 41 - - 0.6
29/09:39am 7.1 1.0 6.8 98 0.1 W 28 50 15 27 - - 0.6
29/09:30am 7.1 2.6 7.0 99 0.0 W 20 44 11 24 - - 0.6
29/09:00am 7.1 2.8 7.1 100 0.0 W 19 44 10 24 - - 5.8
29/08:30am 6.8 0.0 6.7 99 0.0 WNW 32 65 17 35 - - 5.4
29/08:00am 6.5 -0.5 6.2 98 0.1 WNW 32 56 17 30 - - 5.2
29/07:30am 6.5 -1.4 6.4 99 0.0 WNW 37 65 20 35 - - 5.2
29/07:24am 6.4 -0.5 6.3 99 0.0 WNW 32 65 17 35 - - 5.2
29/07:07am 6.3 0.1 6.3 100 0.0 WNW 28 46 15 25 - - 5.0
29/07:00am 6.4 1.0 6.3 99 0.0 WNW 24 50 13 27 - - 5.0
29/06:50am 6.4 0.2 6.3 99 0.0 WNW 28 48 15 26 - - 5.0
29/06:30am 6.4 1.4 6.4 100 0.0 WNW 22 39 12 21 - - 4.8
29/06:00am 6.4 0.2 6.3 99 0.0 WNW 28 54 15 29 - - 4.4
29/05:30am 6.4 -0.8 6.1 98 0.1 WNW 33 59 18 32 - - 4.2
29/05:00am 6.3 0.1 6.0 98 0.1 WNW 28 50 15 27 - - 4.2
29/04:30am 6.3 0.1 6.2 99 0.0 WNW 28 59 15 32 - - 4.0
29/04:00am 6.4 0.2 6.1 98 0.1 WNW 28 72 15 39 - - 4.0
29/03:30am 6.1 -0.9 6.0 99 0.0 WNW 32 56 17 30 - - 4.0
29/03:00am 6.0 -0.6 6.0 100 0.0 WNW 30 54 16 29 - - 3.8
29/02:32am 6.2 0.0 6.1 99 0.0 WNW 28 50 15 27 - - 3.6
29/02:30am 6.2 0.7 6.1 99 0.0 WNW 24 48 13 26 - - 3.6
29/02:00am 6.3 0.3 5.4 94 0.4 WNW 26 46 14 25 - - 3.4
29/01:30am 6.1 -0.6 5.7 97 0.2 WNW 30 50 16 27 - - 3.4
29/01:00am 5.8 -1.4 5.7 99 0.0 WNW 33 59 18 32 - - 3.4
29/12:30am 5.9 -1.1 5.8 99 0.0 WNW 32 54 17 29 - - 3.0
29/12:00am 5.9 -1.1 5.8 99 0.0 WNW 32 57 17 31 - - 3.0
 
Date/Time
EST
Temp
°C
App
Temp
°C
Dew
Point
°C
Rel
Hum
%
Delta-T
°C
Wind Press
QNH
hPa
Press
MSL
hPa
Rain since
9am
mm
Dir  Spd
km/h
Gust
km/h
Spd
kts
Gust
kts
28/11:30pm 5.8 -1.3 5.7 99 0.0 WNW 32 63 17 34 - - 3.0
28/11:06pm 5.7 -1.0 5.6 99 0.0 WNW 30 48 16 26 - - 2.6
28/11:00pm 5.8 -0.2 5.4 97 0.2 WNW 26 44 14 24 - - 2.6
28/10:31pm 5.9 -0.4 5.8 99 0.0 WNW 28 46 15 25 - - 2.6
28/10:30pm 6.0 -0.6 5.9 99 0.0 WNW 30 46 16 25 - - 2.6
28/10:04pm 5.8 -0.6 5.4 97 0.2 WNW 28 52 15 28 - - 2.6
28/10:00pm 5.7 0.1 5.3 97 0.2 WNW 24 43 13 23 - - 2.6
28/09:30pm 6.4 0.2 4.2 86 1.0 WNW 26 48 14 26 - - 2.4
28/09:03pm 6.1 -0.5 4.4 89 0.8 WNW 28 54 15 29 - - 2.4
28/09:00pm 6.0 -0.2 4.5 90 0.7 WNW 26 54 14 29 - - 2.4
28/08:30pm 6.4 -0.8 5.0 91 0.6 WNW 32 52 17 28 - - 2.4
28/08:03pm 6.4 0.0 5.2 92 0.5 WNW 28 46 15 25 - - 2.4
28/08:00pm 6.4 0.4 5.2 92 0.5 WNW 26 46 14 25 - - 2.4
28/07:47pm 6.4 0.0 5.0 91 0.6 WNW 28 48 15 26 - - 2.4
28/07:30pm 6.0 0.4 5.3 95 0.3 WNW 24 39 13 21 - - 2.4
28/07:00pm 6.3 0.5 4.3 87 0.9 WNW 24 52 13 28 - - 2.4
28/06:30pm 6.4 -0.9 4.7 89 0.8 WNW 32 54 17 29 - - 2.4
28/06:15pm 6.3 -0.2 4.5 88 0.8 WNW 28 50 15 27 - - 2.2
28/06:00pm 6.3 0.2 4.6 89 0.8 WNW 26 44 14 24 - - 2.2
28/05:30pm 6.7 0.0 3.7 81 1.3 WNW 28 52 15 28 - - 2.2
28/05:29pm 6.7 0.0 3.7 81 1.3 WNW 28 52 15 28 - - 2.2
28/05:00pm 6.2 0.3 3.7 84 1.1 WNW 24 54 13 29 - - 2.2
28/04:49pm 6.1 -0.5 4.4 89 0.8 WNW 28 54 15 29 - - 2.2
28/04:30pm 6.3 1.9 4.8 90 0.7 WNW 17 33 9 18 - - 2.2
28/04:00pm 6.8 1.7 4.3 84 1.1 WNW 20 37 11 20 - - 2.2
28/03:30pm 7.0 1.6 4.5 84 1.1 WNW 22 46 12 25 - - 2.2
28/03:00pm 7.2 -1.0 5.0 86 1.0 W 37 65 20 35 - - 2.2
28/02:30pm 7.6 0.4 5.7 88 0.9 W 33 69 18 37 - - 2.2
28/02:09pm 7.6 -0.4 5.7 88 0.9 W 37 72 20 39 - - 2.2
28/02:00pm 7.7 0.6 5.7 87 0.9 W 32 54 17 29 - - 2.2
28/01:30pm 7.5 -0.7 6.4 93 0.5 W 39 70 21 38 - - 2.2
28/01:00pm 7.8 0.9 6.6 92 0.6 W 32 57 17 31 - - 2.2
28/12:33pm 8.2 2.1 8.1 99 0.0 W 30 54 16 29 - - 2.0
28/12:30pm 8.1 1.9 8.0 99 0.0 W 30 44 16 24 - - 2.0
28/12:00pm 8.2 0.9 7.0 92 0.6 W 35 63 19 34 - - 1.8
28/11:30am 7.8 0.2 7.5 98 0.1 WNW 37 63 20 34 - - 1.8
28/11:00am 7.2 -0.5 7.1 99 0.0 WNW 37 61 20 33 - - 1.6
28/10:41am 7.4 -0.3 7.3 99 0.0 WNW 37 82 20 44 - - 1.4
28/10:30am 7.4 -0.3 7.3 99 0.0 WNW 37 61 20 33 - - 1.2
28/10:00am 7.9 1.1 7.8 99 0.0 WNW 33 67 18 36 - - 0.6
28/09:34am 7.2 1.2 7.2 100 0.0 WNW 28 50 15 27 - - 0.6
28/09:30am 7.2 1.6 7.2 100 0.0 WNW 26 50 14 27 - - 0.6
28/09:00am 7.2 0.4 7.1 99 0.0 WNW 32 67 17 36 - - 24.0
28/08:30am 7.0 -0.4 6.9 99 0.0 WNW 35 65 19 35 - - 23.0
28/08:00am 7.1 -0.6 7.0 99 0.0 WNW 37 76 20 41 - - 22.6
28/07:59am 7.1 -1.0 7.0 99 0.0 WNW 39 76 21 41 - - 22.6
28/07:37am 7.0 1.0 7.0 100 0.0 WNW 28 54 15 29 - - 22.2
28/07:30am 6.8 1.5 6.8 100 0.0 WNW 24 46 13 25 - - 22.2
28/07:00am 7.0 0.0 7.0 100 0.0 WNW 33 57 18 31 - - 20.6
28/06:30am 6.5 0.4 6.4 99 0.0 NW 28 56 15 30 - - 19.4
28/06:00am 6.2 -0.8 6.1 99 0.0 WNW 32 59 17 32 - - 17.2
28/05:37am 6.0 -0.3 5.9 99 0.0 WNW 28 46 15 25 - - 15.8
28/05:30am 5.6 -0.4 5.3 98 0.1 WNW 26 44 14 24 - - 15.8
28/05:00am 5.7 -0.8 4.7 93 0.4 WNW 28 57 15 31 - - 14.6
28/04:30am 6.2 -1.7 4.4 88 0.8 WNW 35 57 19 31 - - 14.0
28/04:00am 5.8 -2.8 4.6 92 0.5 WNW 39 61 21 33 - - 14.0
28/03:30am 5.6 -1.7 4.7 94 0.4 WNW 32 59 17 32 - - 13.6
28/03:00am 5.3 -1.1 5.0 98 0.1 WNW 28 48 15 26 - - 13.4
28/02:35am 5.5 -0.9 5.1 97 0.2 WNW 28 56 15 30 - - 13.0
28/02:30am 5.4 0.5 5.0 97 0.2 WNW 20 50 11 27 - - 13.0
28/02:00am 4.9 0.4 4.3 96 0.3 WNW 17 37 9 20 - - 12.4
28/01:30am 6.1 -0.6 3.4 83 1.2 W 28 56 15 30 - - 11.4
28/01:27am 6.2 -0.6 3.2 81 1.3 W 28 52 15 28 - - 11.4
28/01:00am 5.9 0.7 3.4 84 1.1 WNW 20 39 11 21 - - 11.4
28/12:30am 5.6 0.0 3.6 87 0.9 WNW 22 44 12 24 - - 11.4
28/12:00am 5.5 0.0 4.2 91 0.6 WNW 22 37 12 20 - - 11.4
 
Date/Time
EST
Temp
°C
App
Temp
°C
Dew
Point
°C
Rel
Hum
%
Delta-T
°C
Wind Press
QNH
hPa
Press
MSL
hPa
Rain since
9am
mm
Dir  Spd
km/h
Gust
km/h
Spd
kts
Gust
kts
27/11:30pm 5.3 0.2 4.3 93 0.4 W 20 50 11 27 - - 11.2
27/11:00pm 5.3 0.2 4.0 91 0.6 W 20 48 11 26 - - 10.6
27/10:30pm 5.1 0.3 4.4 95 0.3 WNW 19 37 10 20 - - 10.4
27/10:00pm 4.9 -0.5 4.3 96 0.3 WNW 22 43 12 23 - - 9.8
27/09:39pm 5.4 -1.3 3.4 87 0.9 WNW 28 61 15 33 - - 9.4
27/09:30pm 5.1 -0.9 3.6 90 0.6 W 24 44 13 24 - - 9.4
27/09:00pm 5.5 0.4 4.3 92 0.5 W 20 46 11 25 - - 9.2
27/08:30pm 5.4 -0.3 4.7 95 0.3 W 24 39 13 21 - - 9.0
27/08:00pm 5.3 -0.3 5.2 99 0.0 W 24 46 13 25 - - 9.0
27/07:30pm 5.4 -1.0 5.1 98 0.1 W 28 57 15 31 - - 8.6
27/07:25pm 5.5 -0.9 5.1 97 0.2 W 28 57 15 31 - - 8.4
27/07:00pm 6.2 1.4 5.8 97 0.2 W 20 52 11 28 - - 7.6
27/06:30pm 6.2 -1.0 6.1 99 0.0 WNW 33 72 18 39 - - 7.4
27/06:00pm 6.0 -1.0 6.0 100 0.0 W 32 70 17 38 - - 7.2
27/05:30pm 3.8 -2.9 3.8 100 0.0 NW 28 56 15 30 - - 6.2
27/05:08pm 3.3 -3.5 3.3 100 0.0 NW 28 74 15 40 - - 5.4
27/05:00pm 2.4 -3.0 2.4 100 0.0 NW 20 41 11 22 - - 5.2
27/04:30pm 2.4 -2.5 2.3 99 0.0 NW 17 32 9 17 - - 4.6
27/04:00pm 2.5 -3.3 2.2 98 0.1 WNW 22 39 12 21 - - 3.0
27/03:42pm 2.9 -4.0 2.5 97 0.2 NW 28 48 15 26 - - 2.6
27/03:30pm 2.6 -3.2 2.5 99 0.0 NW 22 41 12 22 - - 2.4
27/03:00pm 2.9 -2.9 2.5 97 0.2 NW 22 41 12 22 - - 2.4
27/02:30pm 2.6 -5.8 1.6 93 0.4 WNW 35 61 19 33 - - 2.0
27/02:00pm 2.7 -4.8 1.5 92 0.5 WNW 30 57 16 31 - - 1.6
27/01:30pm 3.1 -4.7 1.6 90 0.6 WNW 32 56 17 30 - - 1.4
27/01:24pm 3.1 -4.0 1.6 90 0.6 WNW 28 56 15 30 - - 1.4
27/01:00pm 3.1 -3.6 1.3 88 0.7 WNW 26 46 14 25 - - 1.4
27/12:30pm 3.8 -1.3 1.0 82 1.1 W 17 35 9 19 - - 1.2
27/12:05pm 3.3 -4.0 -0.2 78 1.3 W 28 50 15 27 - - 1.2
27/12:00pm 3.6 -2.5 0.1 78 1.4 W 22 41 12 22 - - 1.2
27/11:30am 3.5 -0.9 0.6 81 1.1 W 13 33 7 18 - - 1.2
27/11:00am 3.7 -1.3 1.4 85 0.9 W 17 43 9 23 - - 1.2
27/10:30am 1.6 -4.1 0.7 94 0.3 W 20 41 11 22 - - 1.0
27/10:00am 2.8 -3.0 0.2 83 1.0 W 20 48 11 26 - - 0.8
27/09:30am 2.0 -3.6 0.2 88 0.7 W 19 35 10 19 - - 0.0
27/09:00am 1.4 -5.2 -0.4 88 0.7 W 24 44 13 24 - - 41.4
27/08:30am 1.8 -4.4 -0.1 87 0.7 W 22 41 12 22 - - 41.0
27/08:00am 1.6 -4.1 -0.5 86 0.8 W 19 35 10 19 - - 41.0
27/07:30am 1.4 -4.2 0.2 92 0.5 WNW 19 32 10 17 - - 41.0
27/07:00am 1.2 -4.3 0.6 96 0.2 W 19 32 10 17 - - 41.0
27/06:30am 1.0 -3.3 0.9 99 0.0 WSW 13 24 7 13 - - 41.0
27/06:00am 1.0 -3.3 0.7 98 0.1 W 13 24 7 13 - - 41.0
27/05:30am 0.7 -4.0 0.6 99 0.0 WSW 15 24 8 13 - - 41.0
27/05:00am 1.2 -3.1 1.1 99 0.0 SW 13 26 7 14 - - 41.0
27/04:30am 0.7 -3.3 0.7 100 0.0 W 11 24 6 13 - - 41.0
27/04:00am 1.0 -5.0 1.0 100 0.0 WSW 22 39 12 21 - - 40.8

Other Formats:

Comma delimited format used in spreadsheet applications
http://www.bom.gov.au/fwo/IDT60801/IDT60801.95962.axf

JavaScript Object Notation format (JSON) in row-major order
http://www.bom.gov.au/fwo/IDT60801/IDT60801.95962.json